Time;durP1;ratioP1;P1;durP2;ratioP2;P2;SDS_P1;SDS_P2;PMS_P1;PMS_P2;Temp;Humidity;BMP_temperature;BMP_pressure;BME280_temperature;BME280_humidity;BME280_pressure;Samples;Min_cycle;Max_cycle;Signal;HPM_P1;HPM_P2
2022/07/23 02:31:07;;;;;;;3.70;3.40;;;;;;;22.76;51.55;98695.53;5124786;27;42720;-75
2022/07/23 02:33:37;;;;;;;3.77;3.47;;;;;;;22.67;51.47;98699.28;5156228;27;39744;-76
2022/07/23 02:36:05;;;;;;;4.33;3.87;;;;;;;22.63;51.56;98700.63;5175579;27;40901;-76
2022/07/23 02:38:32;;;;;;;3.43;3.13;;;;;;;22.56;51.27;98701.34;5158387;27;43514;-76
2022/07/23 02:41:01;;;;;;;3.60;3.30;;;;;;;22.44;51.45;98688.41;5158132;27;42309;-76
2022/07/23 02:43:28;;;;;;;3.57;3.27;;;;;;;22.44;51.93;98683.88;5158585;27;39895;-76
2022/07/23 02:45:57;;;;;;;3.90;3.60;;;;;;;22.39;51.86;98680.84;5175389;27;41754;-76
2022/07/23 02:48:25;;;;;;;3.97;3.67;;;;;;;22.33;51.98;98678.84;5175685;27;42650;-76
2022/07/23 02:50:56;;;;;;;3.67;3.37;;;;;;;22.30;52.16;98681.88;5175445;27;42027;-76
2022/07/23 02:53:28;;;;;;;4.20;3.63;;;;;;;22.27;52.76;98682.22;5172687;27;41008;-76
2022/07/23 02:55:56;;;;;;;4.00;3.70;;;;;;;22.24;52.64;98682.59;5176755;27;41799;-76
2022/07/23 02:58:26;;;;;;;5.53;4.30;;;;;;;22.20;54.47;98674.00;5175384;27;42822;-75
2022/07/23 03:00:54;;;;;;;4.40;4.00;;;;;;;22.07;53.73;98649.44;5157819;27;40939;-76
2022/07/23 03:03:22;;;;;;;4.30;3.90;;;;;;;22.19;53.70;98674.19;5158306;27;39114;-75
2022/07/23 03:05:50;;;;;;;8.23;4.17;;;;;;;22.18;53.47;98683.28;5175418;27;42733;-76
2022/07/23 03:08:19;;;;;;;4.30;3.93;;;;;;;22.17;53.41;98684.28;5175505;27;43687;-75
2022/07/23 03:10:52;;;;;;;4.57;3.80;;;;;;;22.17;53.11;98697.78;5171939;27;43026;-76
2022/07/23 03:13:20;;;;;;;4.20;3.80;;;;;;;22.18;53.07;98699.47;5157718;27;41112;-75
2022/07/23 03:15:47;;;;;;;5.40;3.97;;;;;;;22.16;53.16;98701.50;5175530;27;41381;-76
2022/07/23 03:18:15;;;;;;;4.27;3.87;;;;;;;22.12;53.07;98695.63;5156729;27;43489;-75
2022/07/23 03:20:43;;;;;;;4.00;3.70;;;;;;;22.15;53.05;98699.81;5157433;27;41223;-76
2022/07/23 03:23:11;;;;;;;4.40;4.10;;;;;;;22.15;52.83;98708.75;5157791;27;39050;-75
2022/07/23 03:25:41;;;;;;;4.27;3.37;;;;;;;22.15;52.92;98705.19;5157578;27;42932;-76
2022/07/23 03:28:08;;;;;;;4.27;3.90;;;;;;;22.15;53.26;98703.34;5172360;27;43762;-76
2022/07/23 03:30:36;;;;;;;3.50;3.20;;;;;;;22.17;53.13;98692.38;5157546;27;41465;-76
2022/07/23 03:33:04;;;;;;;3.63;3.33;;;;;;;22.04;53.13;98673.22;5174279;27;39224;-76
2022/07/23 03:35:32;;;;;;;3.93;3.63;;;;;;;22.18;53.45;98699.47;5174618;27;44108;-75
2022/07/23 03:38:17;;;;;;;4.57;4.17;;;;;;;22.05;53.51;98688.38;5157501;27;43140;-76
2022/07/23 03:40:47;;;;;;;3.90;3.60;;;;;;;22.22;52.99;98714.31;5174878;27;43128;-75
2022/07/23 03:43:15;;;;;;;3.70;3.40;;;;;;;22.22;53.61;98717.00;5157159;27;39316;-76
2022/07/23 03:45:42;;;;;;;4.63;4.00;;;;;;;22.17;53.55;98703.19;5157167;27;41818;-76
2022/07/23 03:48:10;;;;;;;4.57;4.10;;;;;;;22.18;53.72;98716.50;5156704;27;43067;-76
2022/07/23 03:50:38;;;;;;;4.03;3.70;;;;;;;22.16;53.48;98725.78;5175887;27;42334;-75
2022/07/23 03:53:06;;;;;;;4.17;3.87;;;;;;;22.13;53.91;98715.34;5139936;27;40066;-76
2022/07/23 03:55:36;;;;;;;5.00;3.73;;;;;;;22.16;54.53;98714.97;5174843;27;41622;-76
2022/07/23 03:58:06;;;;;;;4.57;4.17;;;;;;;22.16;54.38;98714.97;5174343;27;43663;-76
2022/07/23 04:00:34;;;;;;;3.97;3.67;;;;;;;22.19;54.73;98726.28;5156852;27;42368;-76
2022/07/23 04:03:01;;;;;;;4.80;4.40;;;;;;;22.21;54.64;98726.09;5174377;27;39769;-76
2022/07/23 04:05:30;;;;;;;5.73;5.20;;;;;;;22.23;54.90;98724.06;5156275;27;43095;-76
2022/07/23 04:08:07;;;;;;;4.53;4.10;;;;;;;22.28;54.84;98737.03;5156703;27;44293;-76
2022/07/23 04:10:37;;;;;;;5.33;4.47;;;;;;;22.30;54.99;98752.03;5174510;27;43029;-75
2022/07/23 04:13:09;;;;;;;4.67;4.17;;;;;;;22.23;55.03;98729.47;5147104;27;39967;-76
2022/07/23 04:15:37;;;;;;;5.23;4.60;;;;;;;22.34;55.34;98749.84;5135491;27;42077;-75
2022/07/23 04:18:07;;;;;;;5.47;4.97;;;;;;;22.32;55.70;98733.81;5153114;27;42704;-76
2022/07/23 04:20:56;;;;;;;6.63;5.47;;;;;;;22.40;55.75;98733.78;5168871;27;42283;-76
2022/07/23 04:23:25;;;;;;;5.70;5.00;;;;;;;22.42;56.38;98717.44;5165957;27;40945;-77
2022/07/23 04:25:53;;;;;;;5.93;5.43;;;;;;;22.38;56.54;98710.69;5138489;27;41802;-76
2022/07/23 04:28:22;;;;;;;5.90;5.37;;;;;;;22.40;56.68;98719.47;5170647;27;42537;-76
2022/07/23 04:30:50;;;;;;;5.40;4.90;;;;;;;22.18;58.17;98699.47;5173990;27;42523;-80
2022/07/23 04:33:19;;;;;;;4.97;4.57;;;;;;;21.92;59.85;98709.59;5149788;27;39002;-81
2022/07/23 04:35:49;;;;;;;6.07;5.27;;;;;;;21.72;60.69;98709.97;5157460;27;41745;-83
2022/07/23 04:38:21;;;;;;;5.03;4.60;;;;;;;21.58;61.13;98704.44;5157155;27;42755;-87
2022/07/23 04:40:51;;;;;;;5.63;5.13;;;;;;;21.46;62.64;98698.53;5156637;27;42759;-87
2022/07/23 04:43:20;;;;;;;4.70;4.30;;;;;;;21.43;62.15;98731.19;5174713;27;40919;-82
2022/07/23 04:45:52;;;;;;;5.00;4.60;;;;;;;21.41;62.48;98733.22;5145840;27;42427;-83
2022/07/23 04:48:20;;;;;;;5.23;4.73;;;;;;;21.39;62.47;98737.94;5170142;27;44247;-86
2022/07/23 04:50:58;;;;;;;5.00;4.60;;;;;;;21.40;62.58;98750.38;5149572;27;41184;-86
2022/07/23 04:53:31;;;;;;;4.70;4.30;;;;;;;21.32;62.48;98739.63;5152868;27;39104;-76
2022/07/23 04:56:01;;;;;;;5.27;4.77;;;;;;;21.50;62.29;98760.03;5147525;27;41786;-83
2022/07/23 04:58:31;;;;;;;4.93;4.47;;;;;;;21.64;61.74;98754.94;5174308;27;43471;-84
2022/07/23 05:01:01;;;;;;;4.97;4.50;;;;;;;21.84;61.30;98767.94;5156597;27;41392;-76
2022/07/23 05:03:31;;;;;;;7.17;5.53;;;;;;;22.04;60.87;98760.34;5155073;27;40181;-75
2022/07/23 05:05:59;;;;;;;5.73;5.20;;;;;;;22.38;60.40;98787.09;5155538;27;40812;-75
2022/07/23 05:08:28;;;;;;;5.13;4.63;;;;;;;22.63;60.01;98792.41;5155939;27;43114;-76
2022/07/23 05:10:58;;;;;;;4.93;4.53;;;;;;;22.86;59.14;98802.34;5148652;27;41788;-76
2022/07/23 05:13:26;;;;;;;5.23;4.83;;;;;;;23.09;59.05;98802.41;5172194;27;40643;-76
2022/07/23 05:15:55;;;;;;;5.17;4.67;;;;;;;23.27;58.95;98800.25;5173528;27;42509;-76
2022/07/23 05:18:24;;;;;;;7.20;5.67;;;;;;;23.41;58.57;98789.69;5153469;27;41956;-79
2022/07/23 05:20:52;;;;;;;5.30;4.80;;;;;;;23.50;58.18;98804.84;5171778;27;43107;-79
2022/07/23 05:23:22;;;;;;;5.67;5.17;;;;;;;23.52;58.37;98813.66;5159089;27;38654;-76
2022/07/23 05:25:51;;;;;;;5.50;5.00;;;;;;;23.36;58.16;98784.00;5176248;27;41969;-81
2022/07/23 05:28:19;;;;;;;5.50;4.77;;;;;;;23.58;57.96;98818.34;5175353;27;42883;-82
2022/07/23 05:30:47;;;;;;;5.13;4.73;;;;;;;23.67;57.96;98829.94;5159361;27;41258;-80
2022/07/23 05:33:19;;;;;;;4.70;4.30;;;;;;;23.69;57.60;98853.09;5176536;27;40758;-80
2022/07/23 05:35:48;;;;;;;4.73;4.33;;;;;;;23.66;57.97;98858.00;5158998;27;41793;-79
2022/07/23 05:38:37;;;;;;;5.97;5.40;;;;;;;23.57;57.59;98849.97;5175867;27;43348;-78
2022/07/23 05:41:05;;;;;;;5.33;4.87;;;;;;;23.56;57.92;98859.09;5159808;27;41131;-84
2022/07/23 05:43:33;;;;;;;5.27;4.87;;;;;;;23.54;57.86;98871.09;5159750;27;39604;-80
2022/07/23 05:46:07;;;;;;;5.30;4.80;;;;;;;23.54;57.66;98871.94;5159967;27;42151;-81
2022/07/23 05:48:37;;;;;;;4.77;4.37;;;;;;;23.60;57.71;98867.69;5177161;27;42265;-83
2022/07/23 05:51:13;;;;;;;5.03;4.60;;;;;;;23.63;57.51;98859.19;5174487;27;42388;-82
2022/07/23 05:53:41;;;;;;;5.40;4.90;;;;;;;23.74;57.83;98876.91;5181093;27;39980;-79
2022/07/23 05:56:17;;;;;;;5.77;5.20;;;;;;;23.75;57.43;98879.41;5163569;27;40710;-78
2022/07/23 05:58:45;;;;;;;6.00;5.40;;;;;;;23.73;57.31;98876.06;5163309;27;42887;-82
2022/07/23 06:01:14;;;;;;;4.90;4.50;;;;;;;23.66;57.41;98872.38;5180881;27;41970;-79
2022/07/23 06:04:05;;;;;;;5.63;4.03;;;;;;;23.68;57.68;98891.13;5172567;27;40404;-78
2022/07/23 06:06:38;;;;;;;4.77;4.37;;;;;;;23.66;58.04;98890.44;5162439;27;40538;-79
2022/07/23 06:09:08;;;;;;;5.60;5.10;;;;;;;23.63;58.11;98886.22;5162794;27;42079;-81
2022/07/23 06:11:36;;;;;;;6.57;5.93;;;;;;;23.58;58.45;98872.44;5163439;27;41704;-83
2022/07/23 06:14:04;;;;;;;7.67;6.70;;;;;;;23.58;58.69;98875.13;5162844;27;40465;-81
2022/07/23 06:17:04;;;;;;;7.00;6.40;;;;;;;23.42;59.25;98872.47;5157461;27;42157;-86
2022/07/23 06:19:32;;;;;;;6.83;6.23;;;;;;;23.24;60.55;98873.56;5162776;27;43973;-81
2022/07/23 06:22:02;;;;;;;7.70;7.00;;;;;;;23.17;61.29;98888.81;5180658;27;42998;-77
2022/07/23 06:24:31;;;;;;;6.67;5.70;;;;;;;23.17;61.96;98880.69;5163017;27;40512;-78
2022/07/23 06:26:59;;;;;;;7.67;7.00;;;;;;;23.26;61.80;98890.44;5180688;27;41597;-79
2022/07/23 06:29:27;;;;;;;6.53;5.93;;;;;;;23.45;61.83;98901.88;5162578;27;42691;-80
2022/07/23 06:31:55;;;;;;;6.53;5.93;;;;;;;23.61;61.74;98905.34;5161957;27;42399;-83
2022/07/23 06:34:23;;;;;;;5.97;5.47;;;;;;;23.74;61.05;98907.47;5162635;27;40114;-82
2022/07/23 06:36:50;;;;;;;7.40;6.37;;;;;;;23.83;61.35;98909.13;5162869;27;41178;-80
2022/07/23 06:39:20;;;;;;;7.30;6.57;;;;;;;23.92;60.78;98913.44;5199004;27;42805;-82
2022/07/23 06:41:50;;;;;;;6.73;6.13;;;;;;;23.87;60.70;98910.41;5177338;27;42279;-79
2022/07/23 06:44:19;;;;;;;7.07;6.47;;;;;;;24.00;60.50;98928.75;5180158;27;39917;-80
2022/07/23 06:46:49;;;;;;;7.70;7.00;;;;;;;23.99;60.61;98930.63;5162569;27;40163;-80
2022/07/23 06:49:16;;;;;;;8.47;6.53;;;;;;;24.00;60.28;98932.31;5162216;27;41699;-85
2022/07/23 06:51:45;;;;;;;6.97;6.37;;;;;;;23.99;60.42;98946.03;5162879;27;42206;-78
2022/07/23 06:54:12;;;;;;;6.57;5.97;;;;;;;23.94;60.16;98949.28;5179994;27;40225;-81
2022/07/23 06:56:43;;;;;;;6.97;6.37;;;;;;;23.86;60.49;98951.19;5179844;27;41785;-80
2022/07/23 06:59:12;;;;;;;6.80;6.20;;;;;;;23.58;61.53;98931.91;5162142;27;41756;-81
2022/07/23 07:01:39;;;;;;;6.37;5.73;;;;;;;23.41;62.83;98941.06;5162067;27;42323;-77
2022/07/23 07:04:07;;;;;;;7.00;6.40;;;;;;;23.13;64.43;98919.88;5179559;27;41223;-81
2022/07/23 07:06:35;;;;;;;7.53;6.30;;;;;;;22.80;65.42;98900.22;5179622;27;41910;-79
2022/07/23 07:09:03;;;;;;;7.17;6.47;;;;;;;22.75;66.34;98936.84;5162167;27;41973;-79
2022/07/23 07:11:31;;;;;;;6.60;6.00;;;;;;;22.54;66.77;98927.41;5179861;27;42262;-79
2022/07/23 07:14:00;;;;;;;6.07;5.53;;;;;;;22.53;66.79;98925.72;5161843;27;40267;-81
2022/07/23 07:16:28;;;;;;;7.50;6.70;;;;;;;22.44;67.26;98921.34;5179621;27;40166;-80
2022/07/23 07:18:56;;;;;;;6.30;5.77;;;;;;;22.38;68.48;98924.72;5197952;27;42701;-79
2022/07/23 07:21:24;;;;;;;6.80;6.10;;;;;;;22.44;68.65;98925.91;5179248;27;43191;-83
2022/07/23 07:23:51;;;;;;;6.40;5.40;;;;;;;22.50;68.82;98919.84;5162007;27;40951;-82
2022/07/23 07:26:19;;;;;;;6.13;5.63;;;;;;;22.62;68.89;98928.44;5198226;27;41666;-87
2022/07/23 07:28:47;;;;;;;7.30;6.60;;;;;;;22.71;68.45;98922.00;5179062;27;42637;-80
2022/07/23 07:31:16;;;;;;;7.20;5.80;;;;;;;22.84;69.01;98916.94;5178736;27;41119;-76
2022/07/23 07:33:44;;;;;;;6.30;5.70;;;;;;;22.94;68.94;98906.78;5162194;27;38883;-83
2022/07/23 07:36:12;;;;;;;5.87;5.37;;;;;;;23.04;68.05;98911.97;5198146;27;42917;-80
2022/07/23 07:38:40;;;;;;;6.10;5.50;;;;;;;23.17;67.71;98918.53;5179362;27;42785;-82
2022/07/23 07:41:09;;;;;;;6.07;5.47;;;;;;;23.37;67.50;98929.75;5161444;27;41261;-79
2022/07/23 07:43:37;;;;;;;5.87;5.27;;;;;;;23.68;66.93;98932.53;5179068;27;39850;-84
2022/07/23 07:46:09;;;;;;;5.87;5.37;;;;;;;24.03;65.72;98946.50;5179256;27;42559;-81
2022/07/23 07:48:39;;;;;;;6.63;6.03;;;;;;;24.29;64.83;98941.63;5176685;27;42711;-79
2022/07/23 07:51:07;;;;;;;5.77;5.27;;;;;;;24.56;64.42;98938.34;5161261;27;42020;-83
2022/07/23 07:53:34;;;;;;;6.23;5.63;;;;;;;24.77;63.29;98940.34;5179440;27;39815;-82
2022/07/23 07:56:02;;;;;;;6.30;5.70;;;;;;;24.87;63.30;98923.81;5161653;27;40752;-81
2022/07/23 07:58:30;;;;;;;6.33;5.73;;;;;;;25.12;62.56;98933.41;5179106;27;42245;-83
2022/07/23 08:00:58;;;;;;;6.60;5.47;;;;;;;25.21;62.31;98926.88;5178886;27;42135;-82
2022/07/23 08:03:25;;;;;;;6.03;5.47;;;;;;;25.99;62.38;98947.91;5197715;27;40864;-80
2022/07/23 08:05:55;;;;;;;6.43;5.83;;;;;;;27.14;58.63;98980.34;5161120;27;40873;-80
2022/07/23 08:08:22;;;;;;;5.80;5.30;;;;;;;28.70;54.41;98991.25;5160855;27;42251;-81
2022/07/23 08:10:50;;;;;;;5.73;5.20;;;;;;;29.98;51.32;99012.50;5178403;27;42323;-81
2022/07/23 08:13:18;;;;;;;6.03;5.40;;;;;;;31.15;48.15;99015.81;5178384;27;41376;-78
2022/07/23 08:15:46;;;;;;;5.30;4.80;;;;;;;31.48;46.63;99021.78;5177942;27;40494;-80
2022/07/23 08:18:14;;;;;;;6.00;4.97;;;;;;;31.09;46.59;99028.47;5160707;27;42531;-77
2022/07/23 08:20:42;;;;;;;5.27;4.77;;;;;;;30.70;47.49;99018.66;5178607;27;41131;-78
2022/07/23 08:23:12;;;;;;;4.97;4.57;;;;;;;30.55;48.14;99018.94;5178601;27;40083;-80
2022/07/23 08:25:41;;;;;;;5.77;5.00;;;;;;;30.44;47.17;99029.72;5197336;27;42741;-80
2022/07/23 08:28:12;;;;;;;5.13;4.70;;;;;;;30.45;47.19;99031.41;5177722;27;42838;-82
2022/07/23 08:30:41;;;;;;;5.07;4.67;;;;;;;30.62;46.24;99038.06;5178376;27;42458;-85
2022/07/23 08:33:12;;;;;;;5.30;4.80;;;;;;;30.81;45.63;99048.00;5196559;27;40984;-83
2022/07/23 08:35:44;;;;;;;4.80;4.40;;;;;;;30.76;45.43;99053.31;5174913;27;41787;-81
2022/07/23 08:38:15;;;;;;;5.07;4.67;;;;;;;30.78;44.69;99059.41;5161045;27;43123;-78
2022/07/23 08:40:45;;;;;;;5.30;4.70;;;;;;;31.26;44.14;99072.53;5194096;27;42946;-81
2022/07/23 08:43:15;;;;;;;5.17;4.77;;;;;;;32.09;42.46;99072.97;5178156;27;39041;-79
2022/07/23 08:45:45;;;;;;;5.27;4.77;;;;;;;32.19;41.73;99077.94;5178357;27;41568;-86
2022/07/23 08:48:15;;;;;;;5.27;4.77;;;;;;;32.08;41.62;99076.75;5160141;27;42569;-83
2022/07/23 08:50:44;;;;;;;5.33;4.87;;;;;;;31.78;42.20;99066.56;5178130;27;43316;-82
2022/07/23 08:53:14;;;;;;;5.10;4.60;;;;;;;31.49;42.29;99069.16;5178080;27;39757;-84
2022/07/23 08:55:45;;;;;;;5.13;4.73;;;;;;;31.22;42.56;99074.88;5196645;27;41703;-80
2022/07/23 08:58:14;;;;;;;5.20;4.70;;;;;;;30.97;43.27;99066.63;5175169;27;43493;-77
2022/07/23 09:00:43;;;;;;;5.13;4.53;;;;;;;30.77;43.42;99063.22;5196353;27;43291;-79
2022/07/23 09:03:20;;;;;;;4.97;4.57;;;;;;;30.63;43.63;99059.72;5196438;27;40943;-79
2022/07/23 09:05:51;;;;;;;5.67;5.17;;;;;;;30.41;44.08;99052.03;5160759;27;42120;-79
2022/07/23 09:08:23;;;;;;;4.60;3.87;;;;;;;30.43;44.53;99056.22;5177535;27;43724;-81
2022/07/23 09:10:54;;;;;;;4.77;4.40;;;;;;;30.46;44.57;99060.41;5174730;27;42435;-86
2022/07/23 09:13:35;;;;;;;4.80;4.40;;;;;;;30.33;44.39;99039.44;5160002;27;39130;-83
2022/07/23 09:16:06;;;;;;;4.27;3.87;;;;;;;30.36;44.61;99056.25;5193121;27;41808;-83
2022/07/23 09:18:39;;;;;;;4.17;3.73;;;;;;;30.27;44.65;99054.84;5196328;27;42502;-89
2022/07/23 09:21:13;;;;;;;5.37;4.87;;;;;;;30.17;44.24;99050.88;5160338;27;41654;-80
2022/07/23 09:23:45;;;;;;;4.93;4.43;;;;;;;30.03;44.37;99050.13;5175640;27;40578;-80
2022/07/23 09:26:22;;;;;;;4.67;4.23;;;;;;;30.09;44.65;99065.63;5160161;27;41027;-83
2022/07/23 09:28:57;;;;;;;5.10;4.63;;;;;;;30.68;43.51;99069.97;5160170;27;41944;-78
2022/07/23 09:31:26;;;;;;;4.73;4.33;;;;;;;31.41;42.23;99075.75;5174551;27;42255;-84
2022/07/23 09:34:08;;;;;;;5.27;4.73;;;;;;;31.40;40.54;99085.84;5159758;27;38973;-82
2022/07/23 09:36:36;;;;;;;5.50;5.00;;;;;;;31.40;40.81;99079.56;5160005;27;40755;-79
2022/07/23 09:39:05;;;;;;;4.80;4.40;;;;;;;31.61;41.37;99076.41;5159735;27;41594;-81
2022/07/23 09:41:38;;;;;;;4.50;4.10;;;;;;;32.04;40.08;99087.34;5159700;27;41698;-84
2022/07/23 09:44:15;;;;;;;5.40;4.90;;;;;;;32.57;39.24;99088.59;5159715;27;39142;-81
2022/07/23 09:46:45;;;;;;;4.50;4.10;;;;;;;33.15;37.69;99100.63;5174235;27;41964;-79
2022/07/23 09:49:20;;;;;;;5.57;4.83;;;;;;;33.25;37.03;99088.28;5159595;27;41726;-88
2022/07/23 09:51:54;;;;;;;4.80;4.43;;;;;;;33.62;37.51;99092.50;5159691;27;42650;-83
2022/07/23 09:54:30;;;;;;;5.20;4.80;;;;;;;33.97;36.79;99089.72;5160066;27;40496;-78
2022/07/23 09:57:00;;;;;;;5.03;4.63;;;;;;;34.30;36.36;99083.59;5192835;27;42383;-86
2022/07/23 09:59:30;;;;;;;4.93;4.53;;;;;;;34.66;35.37;99089.78;5176862;27;43952;-87
2022/07/23 10:02:00;;;;;;;5.87;5.30;;;;;;;35.46;33.72;99095.13;5177368;27;42809;-83
2022/07/23 10:04:30;;;;;;;5.37;4.97;;;;;;;36.45;33.04;99106.22;5176978;27;40021;-84
2022/07/23 10:07:23;;;;;;;5.17;4.53;;;;;;;36.64;32.47;99102.00;5176953;27;42818;-78
2022/07/23 10:10:14;;;;;;;5.03;4.70;;;;;;;36.73;32.53;99097.72;5196061;27;42827;-80
2022/07/23 10:15:48;;;;;;;5.20;4.70;;;;;;;36.91;31.22;99097.38;5159610;27;40660;-83
2022/07/23 10:18:15;;;;;;;4.73;4.33;;;;;;;36.94;31.16;99107.91;5176748;27;41737;-89
2022/07/23 10:20:44;;;;;;;4.50;4.10;;;;;;;37.50;30.63;99107.56;5159243;27;44441;-82
2022/07/23 10:23:22;;;;;;;4.80;4.40;;;;;;;37.81;30.18;99103.97;5195314;27;42936;-83
2022/07/23 10:25:59;;;;;;;4.60;4.20;;;;;;;37.87;30.15;99107.56;5192568;27;40009;-81
2022/07/23 10:28:59;;;;;;;4.97;4.50;;;;;;;37.64;30.02;99106.06;5193271;27;42769;-86
2022/07/23 10:31:39;;;;;;;4.37;4.07;;;;;;;37.78;30.78;99104.50;5158841;27;41971;-86
2022/07/23 10:34:17;;;;;;;4.33;4.03;;;;;;;38.45;29.86;99107.34;5159105;27;43430;-86
2022/07/23 10:36:50;;;;;;;4.97;4.57;;;;;;;38.90;28.75;99107.78;5173912;27;40927;-78
2022/07/23 10:39:23;;;;;;;5.70;5.20;;;;;;;39.27;29.13;99102.03;5162761;27;41475;-84
2022/07/23 10:41:52;;;;;;;5.13;4.70;;;;;;;39.82;27.55;99107.53;5195769;27;44281;-81
2022/07/23 10:44:23;;;;;;;4.90;4.60;;;;;;;40.76;26.76;99114.22;5180232;27;42303;-84
2022/07/23 10:49:53;;;;;;;4.82;4.53;;;;;;;40.92;26.12;99111.34;5154444;27;41667;-81
2022/07/23 10:52:25;;;;;;;4.85;4.45;;;;;;;40.33;26.20;99109.38;5162422;27;41915;-83
2022/07/23 10:54:57;;;;;;;5.00;4.60;;;;;;;40.20;26.34;99110.78;5179926;27;43130;-86
2022/07/23 10:57:28;;;;;;;4.68;4.38;;;;;;;40.36;26.02;99108.81;5177068;27;39996;-85
2022/07/23 11:00:16;;;;;;;4.25;3.95;;;;;;;40.30;25.40;99116.38;5198506;27;42670;-81
2022/07/23 11:02:45;;;;;;;5.00;4.60;;;;;;;40.19;25.54;99104.41;5195431;27;42582;-89
2022/07/23 11:05:15;;;;;;;4.65;4.25;;;;;;;40.19;26.04;99109.13;5162015;27;41819;-83
2022/07/23 11:08:16;;;;;;;4.22;3.92;;;;;;;40.29;25.77;99111.94;5162358;27;39923;-84
2022/07/23 11:10:46;;;;;;;4.47;4.18;;;;;;;40.27;25.71;99118.84;5176562;27;42546;-83
2022/07/23 11:13:33;;;;;;;4.70;4.40;;;;;;;40.30;25.63;99126.63;5179554;27;42444;-83
2022/07/23 11:16:16;;;;;;;4.85;4.45;;;;;;;40.43;25.45;99115.72;5198401;27;43700;-81
2022/07/23 11:19:11;;;;;;;4.95;4.50;;;;;;;40.36;25.36;99117.16;5179477;27;40495;-80
2022/07/23 11:21:43;;;;;;;5.53;5.13;;;;;;;40.24;25.37;99111.06;5176865;27;42960;-83
2022/07/23 11:24:13;;;;;;;5.55;5.10;;;;;;;40.27;25.03;99114.13;5179459;27;41655;-83
2022/07/23 11:26:59;;;;;;;5.30;4.88;;;;;;;40.41;24.54;99111.59;5162244;27;41261;-85
2022/07/23 11:29:55;;;;;;;5.35;4.95;;;;;;;40.44;24.62;99111.00;5197467;27;39927;-85
2022/07/23 11:32:35;;;;;;;5.45;5.05;;;;;;;40.03;25.74;99105.59;5118609;27;41582;-84
2022/07/23 11:35:03;;;;;;;5.57;5.07;;;;;;;39.93;25.64;99104.81;5161920;27;42841;-86
2022/07/23 11:37:38;;;;;;;5.80;5.30;;;;;;;40.16;25.45;99098.63;5178982;27;42820;-87
2022/07/23 11:40:09;;;;;;;5.70;5.30;;;;;;;40.49;25.01;99102.66;5198136;27;40769;-80
2022/07/23 11:42:39;;;;;;;5.28;4.93;;;;;;;40.79;24.81;99110.88;5194848;27;42690;-79
2022/07/23 11:45:10;;;;;;;5.38;4.97;;;;;;;40.46;24.29;99109.59;5197897;27;42618;-81
2022/07/23 11:47:38;;;;;;;5.50;4.85;;;;;;;40.34;24.62;99111.06;5179070;27;42717;-81
2022/07/23 11:50:07;;;;;;;5.95;5.45;;;;;;;40.59;24.82;99083.16;5196437;27;40065;-85
2022/07/23 11:52:35;;;;;;;5.60;5.20;;;;;;;41.25;24.68;99088.34;5178858;27;41652;-79
2022/07/23 11:55:06;;;;;;;5.60;5.20;;;;;;;42.26;23.55;99103.22;5179033;27;42772;-85
2022/07/23 11:57:36;;;;;;;5.07;4.68;;;;;;;43.28;21.98;99113.78;5161308;27;41309;-85
2022/07/23 12:00:10;;;;;;;4.53;4.15;;;;;;;44.01;21.88;99104.72;5178787;27;40145;-80
2022/07/23 12:02:42;;;;;;;5.18;4.78;;;;;;;43.94;21.36;99102.28;5175613;27;42624;-92
2022/07/23 12:05:13;;;;;;;4.45;4.15;;;;;;;44.10;21.39;99108.44;5197247;27;43665;-82
2022/07/23 12:07:44;;;;;;;4.95;4.55;;;;;;;43.50;21.47;99100.03;5161377;27;42274;-83
2022/07/23 12:10:31;;;;;;;4.68;4.38;;;;;;;42.25;22.87;99085.66;5109029;28;20553;-83
2022/07/23 12:13:01;;;;;;;5.40;5.00;;;;;;;41.05;23.76;99088.47;5125572;27;38860;-86
2022/07/23 12:15:32;;;;;;;5.57;5.07;;;;;;;39.96;24.67;99077.31;5142772;27;42521;-83
2022/07/23 12:18:02;;;;;;;5.40;4.97;;;;;;;39.30;25.84;99052.44;5108178;28;41574;-89
2022/07/23 12:20:33;;;;;;;5.18;4.78;;;;;;;41.29;24.28;99050.50;5143259;27;42113;-81
2022/07/23 12:23:03;;;;;;;5.38;4.82;;;;;;;42.78;23.39;99081.97;5091002;28;39559;-80
2022/07/23 12:25:34;;;;;;;5.90;5.15;;;;;;;44.52;20.91;99098.91;5108395;28;41707;-79
2022/07/23 12:28:05;;;;;;;5.20;4.80;;;;;;;44.74;20.82;99095.38;5106221;28;42709;-83
2022/07/23 12:30:35;;;;;;;5.15;4.75;;;;;;;44.11;20.71;99096.13;5091248;28;42329;-85
2022/07/23 12:33:03;;;;;;;5.30;4.90;;;;;;;43.90;20.94;99095.66;5107752;28;39039;-87
2022/07/23 12:35:38;;;;;;;4.80;4.50;;;;;;;44.23;21.12;99084.44;5109219;28;42823;-86
2022/07/23 12:38:07;;;;;;;5.18;4.78;;;;;;;44.02;20.75;99095.19;5107578;28;42878;-81
2022/07/23 12:40:42;;;;;;;4.82;4.43;;;;;;;43.50;21.12;99088.03;5090921;28;41084;-86
2022/07/23 12:43:12;;;;;;;5.10;4.70;;;;;;;42.92;21.75;99080.03;5105192;28;40968;-84
2022/07/23 12:45:46;;;;;;;4.60;4.20;;;;;;;43.95;21.22;99080.78;5107888;28;42723;-85
2022/07/23 12:48:20;;;;;;;4.55;4.25;;;;;;;45.05;20.30;99081.50;5107624;28;42449;-83
2022/07/23 12:51:06;;;;;;;4.95;4.65;;;;;;;45.76;19.41;99086.13;5107425;28;41494;-88
2022/07/23 12:53:39;;;;;;;4.72;4.43;;;;;;;46.25;18.35;99083.38;5106505;28;40741;-84
2022/07/23 12:56:11;;;;;;;4.82;4.53;;;;;;;46.79;18.63;99087.66;5108084;28;41361;-84
2022/07/23 12:58:48;;;;;;;5.43;5.03;;;;;;;47.31;17.24;99091.31;5139652;27;43027;-81
2022/07/23 13:01:27;;;;;;;4.53;4.22;;;;;;;47.86;17.31;99084.91;5108043;28;42522;-82
2022/07/23 13:03:59;;;;;;;5.55;5.05;;;;;;;46.75;17.94;99083.84;5105710;28;40944;-78
2022/07/23 13:06:28;;;;;;;4.50;4.10;;;;;;;44.93;18.88;99076.47;5138955;27;42677;-84
2022/07/23 13:08:55;;;;;;;5.53;4.90;;;;;;;44.84;19.37;99072.78;5106988;28;42880;-82
2022/07/23 13:11:25;;;;;;;5.25;4.18;;;;;;;45.88;18.03;99062.28;5124625;27;41861;-83
2022/07/23 13:13:53;;;;;;;4.65;4.28;;;;;;;46.92;17.44;99075.47;5108319;28;40664;-82
2022/07/23 13:16:21;;;;;;;4.65;4.25;;;;;;;47.42;17.26;99078.59;5108689;28;42476;-82
2022/07/23 13:18:49;;;;;;;4.55;4.15;;;;;;;46.33;17.67;99080.66;5090013;28;41702;-85
2022/07/23 13:21:17;;;;;;;4.40;4.10;;;;;;;46.00;17.98;99079.34;5130390;27;41549;-85
2022/07/23 13:23:45;;;;;;;5.10;4.75;;;;;;;45.74;17.71;99074.47;5110885;28;38857;-77
2022/07/23 13:26:13;;;;;;;4.65;4.25;;;;;;;44.32;18.77;99069.44;5076956;28;40654;-84
2022/07/23 13:28:42;;;;;;;5.07;4.60;;;;;;;43.57;19.58;99078.16;5093315;28;42626;-82
2022/07/23 13:31:10;;;;;;;4.53;4.22;;;;;;;43.19;19.99;99071.00;5076865;28;41487;-83
2022/07/23 13:33:38;;;;;;;5.13;4.72;;;;;;;42.91;20.20;99082.00;5094529;28;40854;-83
2022/07/23 13:36:06;;;;;;;6.55;4.95;;;;;;;42.12;21.11;99071.66;5094652;28;41728;-86
2022/07/23 13:38:34;;;;;;;4.63;4.25;;;;;;;42.18;20.53;99081.56;5093168;28;42421;-79
2022/07/23 13:41:03;;;;;;;4.75;4.35;;;;;;;43.12;20.22;99076.13;5093350;28;42929;-83
2022/07/23 13:43:32;;;;;;;4.57;4.28;;;;;;;44.52;18.74;99084.13;5093166;28;40185;-83
2022/07/23 13:46:02;;;;;;;4.28;3.97;;;;;;;45.43;18.30;99087.56;5110281;28;40566;-84
2022/07/23 13:48:31;;;;;;;5.03;4.63;;;;;;;45.77;17.17;99096.19;5076045;28;41843;-86
2022/07/23 13:50:58;;;;;;;5.18;3.97;;;;;;;45.70;17.47;99101.44;5075954;28;41016;-83
2022/07/23 13:53:26;;;;;;;4.20;3.90;;;;;;;44.99;18.05;99096.78;5093042;28;39509;-81
2022/07/23 13:55:55;;;;;;;5.38;4.70;;;;;;;43.69;19.28;99095.22;5094523;28;42758;-81
2022/07/23 13:58:23;;;;;;;4.28;3.97;;;;;;;42.46;20.05;99096.56;5092626;28;41186;-87
2022/07/23 14:00:53;;;;;;;4.57;4.28;;;;;;;41.27;20.98;99079.72;5094273;28;42452;-78
2022/07/23 14:03:24;;;;;;;4.80;4.28;;;;;;;40.46;21.72;99078.25;5109740;28;39135;-85
2022/07/23 14:05:52;;;;;;;5.05;4.47;;;;;;;39.75;21.99;99070.13;5110080;28;40832;-81
2022/07/23 14:08:20;;;;;;;5.18;4.38;;;;;;;40.00;22.39;99041.50;5092522;28;43022;-82
2022/07/23 14:10:48;;;;;;;6.13;4.40;;;;;;;39.83;22.29;99058.44;5089988;28;42174;-86
2022/07/23 14:13:16;;;;;;;5.10;4.53;;;;;;;39.85;22.52;99061.81;5092629;28;38815;-78
2022/07/23 14:15:44;;;;;;;4.90;4.50;;;;;;;39.86;22.46;99071.78;5127458;27;41750;-81
2022/07/23 14:18:11;;;;;;;5.03;4.63;;;;;;;39.89;21.89;99065.69;5126603;27;42628;-83
2022/07/23 14:20:41;;;;;;;4.40;4.10;;;;;;;40.24;21.43;99077.75;5092916;28;41635;-80
2022/07/23 14:23:09;;;;;;;4.83;4.43;;;;;;;39.67;21.90;99070.72;5109738;28;38871;-80
2022/07/23 14:25:37;;;;;;;4.67;4.27;;;;;;;39.53;22.00;99077.94;5093998;28;41802;-84
2022/07/23 14:28:05;;;;;;;4.88;4.53;;;;;;;39.91;21.83;99080.13;5092535;28;43514;-80